createdAt,value
2023-04-10T00:00:38.506Z,10.20
2023-04-10T00:03:06.054Z,10.00
2023-04-10T00:05:33.275Z,10.10
2023-04-10T00:08:00.511Z,10.10
2023-04-10T00:10:29.379Z,10.10
2023-04-10T00:12:56.532Z,10.10
2023-04-10T00:15:23.806Z,10.00
2023-04-10T00:17:55.252Z,10.00
2023-04-10T00:20:23.355Z,10.00
2023-04-10T00:22:50.346Z,10.00
2023-04-10T00:25:17.368Z,10.00
2023-04-10T00:27:44.210Z,9.90
2023-04-10T00:30:11.353Z,9.90
2023-04-10T00:32:38.781Z,9.90
2023-04-10T00:35:06.163Z,9.90
2023-04-10T00:37:33.048Z,9.90
2023-04-10T00:40:00.666Z,9.90
2023-04-10T00:42:27.500Z,9.90
2023-04-10T00:44:54.540Z,9.90
2023-04-10T00:47:21.906Z,9.90
2023-04-10T00:49:49.052Z,9.90
2023-04-10T00:52:16.096Z,9.90
2023-04-10T00:54:43.036Z,9.90
2023-04-10T00:57:10.467Z,9.80
2023-04-10T00:59:37.545Z,9.80
2023-04-10T01:02:04.742Z,9.70
2023-04-10T01:04:32.787Z,9.70
2023-04-10T01:07:25.712Z,9.70
2023-04-10T01:09:55.424Z,9.70
2023-04-10T01:12:39.300Z,9.70
2023-04-10T01:15:20.950Z,9.60
2023-04-10T01:18:11.460Z,9.70
2023-04-10T01:20:40.170Z,9.60
2023-04-10T01:23:16.509Z,9.60
2023-04-10T01:25:53.993Z,9.70
2023-04-10T01:28:26.733Z,9.70
2023-04-10T01:31:00.563Z,9.60
2023-04-10T01:33:35.307Z,9.60
2023-04-10T01:36:06.282Z,9.70
2023-04-10T01:38:34.115Z,9.60
2023-04-10T01:41:01.881Z,9.60
2023-04-10T01:43:31.506Z,9.60
2023-04-10T01:46:00.346Z,9.70
2023-04-10T01:48:28.235Z,9.70
2023-04-10T01:50:57.334Z,9.70
2023-04-10T01:53:24.977Z,9.70
2023-04-10T01:55:53.610Z,9.70
2023-04-10T01:58:20.756Z,9.70
2023-04-10T02:00:47.794Z,9.70
2023-04-10T02:03:15.023Z,9.70
2023-04-10T02:06:17.907Z,9.60
2023-04-10T02:08:55.130Z,9.60
2023-04-10T02:11:30.040Z,9.60
2023-04-10T02:14:01.108Z,9.60
2023-04-10T02:16:30.720Z,9.60
2023-04-10T02:19:00.108Z,9.60
2023-04-10T02:21:27.605Z,9.60
2023-04-10T02:23:56.504Z,9.60
2023-04-10T02:26:23.282Z,9.60
2023-04-10T02:28:50.140Z,9.60
2023-04-10T02:31:17.610Z,9.60
2023-04-10T02:33:44.639Z,9.60
2023-04-10T02:36:11.610Z,9.60
2023-04-10T02:38:38.760Z,9.60
2023-04-10T02:41:05.858Z,9.70
2023-04-10T02:43:32.805Z,9.60
2023-04-10T02:46:00.139Z,9.60
2023-04-10T02:48:27.004Z,9.60
2023-04-10T02:50:59.993Z,9.50
2023-04-10T02:53:26.847Z,9.50
2023-04-10T02:55:54.947Z,9.50
2023-04-10T02:58:24.502Z,9.50
2023-04-10T03:00:52.271Z,9.50
2023-04-10T03:03:20.020Z,9.40
2023-04-10T03:05:49.543Z,9.40
2023-04-10T03:08:17.649Z,9.40
2023-04-10T03:10:48.646Z,9.40
2023-04-10T03:13:16.026Z,9.30
2023-04-10T03:15:43.083Z,9.30
2023-04-10T03:18:10.819Z,9.30
2023-04-10T03:20:38.996Z,9.30
2023-04-10T03:23:07.541Z,9.20
2023-04-10T03:25:34.963Z,9.20
2023-04-10T03:28:02.146Z,9.20
2023-04-10T03:30:29.314Z,9.20
2023-04-10T03:32:56.160Z,9.30
2023-04-10T03:35:23.104Z,9.20
2023-04-10T03:37:49.942Z,9.20
2023-04-10T03:40:16.811Z,9.20
2023-04-10T03:42:43.553Z,9.20
2023-04-10T03:45:11.187Z,9.10
2023-04-10T03:47:38.396Z,9.10
2023-04-10T03:50:05.994Z,9.20
2023-04-10T03:52:32.889Z,9.10
2023-04-10T03:54:59.781Z,9.10
2023-04-10T03:57:26.632Z,8.90
2023-04-10T03:59:53.459Z,8.90
2023-04-10T04:02:20.371Z,8.90
2023-04-10T04:04:47.769Z,8.90
2023-04-10T04:07:14.794Z,8.90
2023-04-10T04:09:41.656Z,8.90
2023-04-10T04:12:08.819Z,9.00
2023-04-10T04:14:35.854Z,9.00
2023-04-10T04:17:02.799Z,8.90
2023-04-10T04:19:30.132Z,8.90
2023-04-10T08:42:29.204Z,8.80
2023-04-10T08:44:56.027Z,13.30
2023-04-10T08:47:27.909Z,13.30
2023-04-10T08:49:57.903Z,13.30
2023-04-10T08:52:31.546Z,13.30
2023-04-10T08:55:00.435Z,13.40
2023-04-10T08:57:27.994Z,13.40
2023-04-10T08:59:55.578Z,13.40
2023-04-10T09:02:22.857Z,13.30
2023-04-10T09:04:51.895Z,13.40
2023-04-10T09:07:18.826Z,13.40
2023-04-10T09:09:45.660Z,13.40
2023-04-10T09:12:16.597Z,13.40
2023-04-10T09:14:43.730Z,13.60
2023-04-10T09:17:19.434Z,13.80
2023-04-10T09:19:49.483Z,14.00
2023-04-10T09:22:17.001Z,14.10
2023-04-10T09:24:45.232Z,14.10
2023-04-10T09:27:29.134Z,14.20
2023-04-10T09:29:56.103Z,14.40
2023-04-10T09:35:10.831Z,14.70
2023-04-10T09:37:38.672Z,14.90
2023-04-10T09:40:06.396Z,14.80
2023-04-10T09:42:37.509Z,14.80
2023-04-10T09:45:05.637Z,15.00
2023-04-10T09:47:33.118Z,15.00
2023-04-10T09:50:01.037Z,15.10
2023-04-10T09:52:30.504Z,15.10
2023-04-10T09:55:03.622Z,15.10
2023-04-10T09:57:32.230Z,15.20
2023-04-10T10:00:00.822Z,15.30
2023-04-10T10:02:31.677Z,15.30
2023-04-10T10:05:01.903Z,15.30
2023-04-10T10:07:30.832Z,15.30
2023-04-10T10:09:58.946Z,15.30
2023-04-10T10:12:40.106Z,15.30
2023-04-10T10:15:18.779Z,15.20
2023-04-10T10:18:04.608Z,15.50
2023-04-10T10:20:35.338Z,15.70
2023-04-10T10:23:03.907Z,15.90
2023-04-10T10:25:31.669Z,16.20
2023-04-10T10:28:02.271Z,16.20
2023-04-10T10:30:30.769Z,16.20
2023-04-10T10:33:00.699Z,16.30
2023-04-10T10:35:29.526Z,16.50
2023-04-10T10:38:00.224Z,16.60
2023-04-10T10:40:37.484Z,16.40
2023-04-10T10:43:48.659Z,16.30
2023-04-10T10:46:22.279Z,16.60
2023-04-10T10:48:59.386Z,16.50
2023-04-10T10:51:52.542Z,16.50
2023-04-10T10:54:42.469Z,16.50
2023-04-10T10:57:46.588Z,16.50
2023-04-10T11:00:13.894Z,16.60
2023-04-10T11:02:40.813Z,16.30
2023-04-10T11:05:07.993Z,16.40
2023-04-10T11:08:06.815Z,16.60
2023-04-10T11:11:08.156Z,16.60
2023-04-10T11:13:38.198Z,16.40
2023-04-10T11:16:07.136Z,16.70
2023-04-10T11:18:46.142Z,16.80
2023-04-10T11:21:17.487Z,16.70
2023-04-10T11:23:50.629Z,17.10
2023-04-10T11:26:36.913Z,17.40
2023-04-10T11:29:05.620Z,17.30
2023-04-10T11:31:33.758Z,17.30
2023-04-10T11:34:04.377Z,17.20
2023-04-10T11:36:32.242Z,17.20
2023-04-10T11:39:10.321Z,17.10
2023-04-10T11:41:39.202Z,17.20
2023-04-10T11:44:07.603Z,17.00
2023-04-10T11:46:39.031Z,17.00
2023-04-10T11:49:07.954Z,16.90
2023-04-10T11:51:34.755Z,16.80
2023-04-10T11:54:12.417Z,16.90
2023-04-10T11:56:41.086Z,16.90
2023-04-10T11:59:10.987Z,17.00
2023-04-10T12:01:39.944Z,17.20
2023-04-10T12:04:20.202Z,17.20
2023-04-10T12:06:56.465Z,17.40
2023-04-10T12:09:23.701Z,17.40
2023-04-10T12:12:03.532Z,17.80
2023-04-10T12:14:41.720Z,18.00
2023-04-10T12:17:12.972Z,17.60
2023-04-10T12:19:40.290Z,17.60
2023-04-10T12:22:07.761Z,17.60
2023-04-10T12:24:51.830Z,17.80
2023-04-10T12:27:29.273Z,17.80
2023-04-10T12:29:58.326Z,18.00
2023-04-10T12:32:27.268Z,18.20
2023-04-10T12:35:01.207Z,18.20
2023-04-10T12:37:55.653Z,17.80
2023-04-10T12:40:22.443Z,17.60
2023-04-10T12:42:49.220Z,17.80
2023-04-10T22:36:34.150Z,18.30
2023-04-10T22:39:01.360Z,10.30
2023-04-10T22:41:29.850Z,10.10
2023-04-10T22:43:56.688Z,10.10
2023-04-10T22:46:23.750Z,10.10
2023-04-10T22:48:50.774Z,10.00
2023-04-10T22:51:18.076Z,10.10
2023-04-10T22:53:44.865Z,10.00
2023-04-10T22:56:11.823Z,10.10
2023-04-10T22:58:40.060Z,10.00
2023-04-10T23:01:08.365Z,10.10
2023-04-10T23:03:35.982Z,10.10
2023-04-10T23:06:03.154Z,10.00
2023-04-10T23:08:30.036Z,10.10
2023-04-10T23:10:57.334Z,10.10
2023-04-10T23:13:24.431Z,10.10
2023-04-10T23:15:52.639Z,10.10
2023-04-10T23:18:19.771Z,10.10
2023-04-10T23:20:47.370Z,10.10
2023-04-10T23:23:14.446Z,10.00
2023-04-10T23:25:41.672Z,10.00
2023-04-10T23:28:08.671Z,10.00
2023-04-10T23:30:39.347Z,10.00
2023-04-10T23:33:06.396Z,10.00
2023-04-10T23:35:33.243Z,10.10
2023-04-10T23:38:00.984Z,10.10
2023-04-10T23:40:27.931Z,10.10
2023-04-10T23:42:54.846Z,10.20
2023-04-10T23:45:21.661Z,10.20
2023-04-10T23:47:50.657Z,10.10
2023-04-10T23:50:17.949Z,10.10
2023-04-10T23:52:51.206Z,10.10
2023-04-10T23:55:18.678Z,10.10
2023-04-10T23:57:45.641Z,10.10
